Time;durP1;ratioP1;P1;durP2;ratioP2;P2;SDS_P1;SDS_P2;PMS_P1;PMS_P2;Temp;Humidity;BMP_temperature;BMP_pressure;BME280_temperature;BME280_humidity;BME280_pressure;Samples;Min_cycle;Max_cycle;Signal;HPM_P1;HPM_P2
2021/10/08 00:01:18;;;;;;;0.20;0.20;;;;;;;6.83;100.00;102582.84;5029388;28;20469;-85
2021/10/08 00:03:52;;;;;;;0.20;0.20;;;;;;;7.04;100.00;102625.09;5014452;28;20064;-81
2021/10/08 00:06:25;;;;;;;0.22;0.22;;;;;;;6.96;100.00;102626.13;5025807;28;20065;-82
2021/10/08 00:08:53;;;;;;;0.15;0.15;;;;;;;6.97;100.00;102633.22;5027041;28;20719;-81
2021/10/08 00:11:22;;;;;;;0.20;0.20;;;;;;;6.89;100.00;102625.28;5031305;28;20045;-82
2021/10/08 00:13:52;;;;;;;0.17;0.17;;;;;;;6.92;100.00;102631.13;5032377;28;20045;-81
2021/10/08 00:16:26;;;;;;;0.20;0.20;;;;;;;6.83;100.00;102628.84;5014018;28;20053;-81
2021/10/08 00:18:59;;;;;;;0.15;0.15;;;;;;;6.74;100.00;102626.34;5014485;28;20045;-82
2021/10/08 00:21:27;;;;;;;0.20;0.20;;;;;;;6.70;100.00;102624.22;5037734;28;20077;-81
2021/10/08 00:24:00;;;;;;;0.20;0.20;;;;;;;6.76;100.00;102640.47;5016546;28;20053;-82
2021/10/08 00:26:28;;;;;;;0.20;0.20;;;;;;;6.70;100.00;102632.34;5013949;28;20068;-81
2021/10/08 00:28:58;;;;;;;0.20;0.20;;;;;;;6.65;100.00;102630.25;5014515;28;20049;-82
2021/10/08 00:31:31;;;;;;;0.20;0.20;;;;;;;6.67;100.00;102630.91;5025890;28;20052;-81
2021/10/08 00:34:00;;;;;;;0.20;0.20;;;;;;;6.68;100.00;102634.44;5013888;28;20056;-81
2021/10/08 00:36:33;;;;;;;0.20;0.20;;;;;;;6.73;100.00;102634.66;5013776;28;20049;-81
2021/10/08 00:39:03;;;;;;;0.20;0.20;;;;;;;6.75;100.00;102636.13;5013143;28;20080;-82
2021/10/08 00:41:32;;;;;;;0.25;0.25;;;;;;;6.69;100.00;102636.13;5031155;28;20061;-82
2021/10/08 00:44:06;;;;;;;0.30;0.20;;;;;;;6.68;100.00;102626.31;5031820;28;20041;-83
2021/10/08 00:46:40;;;;;;;0.20;0.20;;;;;;;6.67;100.00;102636.31;5013882;28;20057;-82
2021/10/08 00:49:08;;;;;;;0.17;0.17;;;;;;;6.66;100.00;102633.78;5013703;28;20788;-81
2021/10/08 00:51:41;;;;;;;0.20;0.20;;;;;;;6.61;100.00;102634.41;5013683;28;20057;-81
2021/10/08 00:54:15;;;;;;;0.20;0.20;;;;;;;6.58;100.00;102634.84;5030057;28;20052;-81
2021/10/08 00:56:43;;;;;;;0.20;0.20;;;;;;;6.58;100.00;102645.66;5014595;28;20057;-81
2021/10/08 00:59:17;;;;;;;0.30;0.30;;;;;;;6.54;100.00;102637.09;5013528;28;20065;-81
2021/10/08 01:01:51;;;;;;;0.20;0.20;;;;;;;6.56;100.00;102645.88;5035625;28;20052;-81
2021/10/08 01:04:25;;;;;;;0.13;0.13;;;;;;;6.54;100.00;102642.50;5028127;28;20049;-81
2021/10/08 01:06:59;;;;;;;0.20;0.20;;;;;;;6.53;100.00;102640.03;5029911;28;20053;-82
2021/10/08 01:09:32;;;;;;;0.20;0.20;;;;;;;6.47;100.00;102645.19;5028215;28;20057;-82
2021/10/08 01:12:07;;;;;;;0.20;0.20;;;;;;;6.51;100.00;102636.69;5013747;28;20057;-83
2021/10/08 01:14:43;;;;;;;0.20;0.20;;;;;;;6.42;100.00;102634.19;5013944;28;20048;-81
2021/10/08 01:17:14;;;;;;;0.20;0.20;;;;;;;6.39;100.00;102631.84;5028376;28;20034;-81
2021/10/08 01:19:53;;;;;;;0.20;0.20;;;;;;;6.38;100.00;102634.78;5033325;28;20041;-81
2021/10/08 01:22:30;;;;;;;0.20;0.20;;;;;;;6.40;100.00;102640.81;5016649;28;20751;-82
2021/10/08 01:25:06;;;;;;;0.20;0.20;;;;;;;6.36;100.00;102634.97;5016262;28;20547;-82
2021/10/08 01:27:41;;;;;;;0.20;0.20;;;;;;;6.31;100.00;102632.03;5016823;28;20045;-82
2021/10/08 01:30:23;;;;;;;0.15;0.15;;;;;;;6.34;100.00;102637.06;5014372;28;20046;-83
2021/10/08 01:32:57;;;;;;;0.10;0.10;;;;;;;6.36;100.00;102639.56;5011676;28;20053;-82
2021/10/08 01:35:26;;;;;;;0.25;0.25;;;;;;;6.28;100.00;102635.16;5014321;28;20060;-82
2021/10/08 01:37:59;;;;;;;0.22;0.22;;;;;;;6.34;100.00;102634.38;5013939;28;20041;-82
2021/10/08 01:40:33;;;;;;;0.17;0.17;;;;;;;6.36;100.00;102639.56;5023606;28;20045;-81
2021/10/08 01:43:14;;;;;;;0.20;0.20;;;;;;;6.28;100.00;102629.75;5028488;28;20088;-83
2021/10/08 01:45:43;;;;;;;0.20;0.20;;;;;;;6.34;100.00;102630.81;5016423;28;20049;-83
2021/10/08 01:48:34;;;;;;;0.20;0.20;;;;;;;6.38;100.00;102641.03;5016451;28;20049;-82
2021/10/08 01:51:08;;;;;;;0.20;0.20;;;;;;;6.39;100.00;102639.97;5013056;28;20060;-82
2021/10/08 01:53:45;;;;;;;0.20;0.20;;;;;;;6.32;100.00;102633.72;5015921;28;20060;-84
2021/10/08 01:56:19;;;;;;;0.20;0.20;;;;;;;6.32;100.00;102641.81;5033058;28;20056;-82
2021/10/08 01:58:59;;;;;;;0.20;0.20;;;;;;;6.27;100.00;102637.03;5016064;28;20121;-82
2021/10/08 02:01:35;;;;;;;0.20;0.20;;;;;;;6.34;100.00;102637.06;5027640;28;20421;-83
2021/10/08 02:05:06;;;;;;;0.20;0.20;;;;;;;6.38;100.00;102651.00;5016482;28;20053;-83
2021/10/08 02:07:41;;;;;;;0.22;0.22;;;;;;;6.31;100.00;102642.84;5013318;28;20490;-82
2021/10/08 02:10:17;;;;;;;0.20;0.20;;;;;;;6.26;100.00;102646.19;5016086;28;20401;-82
2021/10/08 02:12:51;;;;;;;0.20;0.20;;;;;;;6.25;100.00;102640.97;5013954;28;20053;-81
2021/10/08 02:15:24;;;;;;;0.20;0.20;;;;;;;6.23;100.00;102646.59;5016649;28;20053;-82
2021/10/08 02:17:58;;;;;;;0.20;0.20;;;;;;;6.00;100.00;102610.94;5016430;28;20420;-81
2021/10/08 02:20:34;;;;;;;0.20;0.20;;;;;;;6.24;100.00;102650.13;5029895;28;20060;-82
2021/10/08 02:23:08;;;;;;;0.20;0.20;;;;;;;6.23;100.00;102654.69;5034021;28;20045;-82
2021/10/08 02:25:46;;;;;;;0.20;0.20;;;;;;;6.09;100.00;102628.63;5016512;28;20064;-83
2021/10/08 02:28:19;;;;;;;0.25;0.25;;;;;;;6.22;100.00;102652.22;5014929;28;20048;-82
2021/10/08 02:30:53;;;;;;;0.20;0.20;;;;;;;6.24;100.00;102656.38;5014179;28;20045;-82
2021/10/08 02:33:57;;;;;;;0.10;0.10;;;;;;;6.16;100.00;102655.69;5014704;28;20056;-83
2021/10/08 02:36:25;;;;;;;0.20;0.20;;;;;;;6.16;100.00;102656.56;5021059;28;20448;-82
2021/10/08 02:38:58;;;;;;;0.20;0.20;;;;;;;6.15;100.00;102660.28;5031365;28;20045;-82
2021/10/08 02:41:34;;;;;;;0.20;0.20;;;;;;;6.14;100.00;102653.19;5015202;28;20052;-81
2021/10/08 02:44:07;;;;;;;0.20;0.20;;;;;;;6.15;100.00;102659.47;5015654;28;20477;-83
2021/10/08 02:46:42;;;;;;;0.20;0.20;;;;;;;6.09;100.00;102664.63;5015370;28;20050;-81
2021/10/08 02:49:12;;;;;;;0.20;0.20;;;;;;;6.10;100.00;102669.00;5015117;28;20056;-82
2021/10/08 02:51:41;;;;;;;0.20;0.20;;;;;;;6.17;100.00;102670.88;5031305;28;20065;-82
2021/10/08 02:54:09;;;;;;;0.20;0.20;;;;;;;6.18;100.00;102675.28;5015024;28;20050;-82
2021/10/08 02:56:39;;;;;;;0.20;0.20;;;;;;;6.22;100.00;102679.25;5033386;28;20053;-82
2021/10/08 02:59:12;;;;;;;0.20;0.20;;;;;;;6.21;100.00;102677.56;5013137;28;20049;-81
2021/10/08 03:01:47;;;;;;;0.20;0.20;;;;;;;6.23;100.00;102681.75;5013498;28;20050;-81
2021/10/08 03:04:20;;;;;;;0.30;0.30;;;;;;;6.25;100.00;102685.06;5012905;28;20049;-80
2021/10/08 03:06:48;;;;;;;0.20;0.20;;;;;;;6.23;100.00;102687.16;5033002;28;20049;-81
2021/10/08 03:09:17;;;;;;;0.20;0.20;;;;;;;6.18;100.00;102686.91;5015150;28;20069;-82
2021/10/08 03:11:52;;;;;;;0.45;0.20;;;;;;;6.09;100.00;102688.09;5014106;28;20527;-80
2021/10/08 03:14:20;;;;;;;0.20;0.20;;;;;;;6.08;100.00;102684.56;5013764;28;20060;-81
2021/10/08 03:16:54;;;;;;;0.10;0.10;;;;;;;6.07;100.00;102690.19;5014798;28;20052;-81
2021/10/08 03:20:21;;;;;;;0.10;0.10;;;;;;;5.95;100.00;102682.63;5025182;28;20056;-81
2021/10/08 03:22:54;;;;;;;0.10;0.10;;;;;;;5.83;100.00;102673.41;5012438;28;20112;-80
2021/10/08 03:25:28;;;;;;;0.22;0.20;;;;;;;5.83;100.00;102680.66;5011246;28;20053;-81
2021/10/08 03:28:03;;;;;;;0.20;0.20;;;;;;;5.77;100.00;102684.97;5033592;28;20393;-82
2021/10/08 03:30:36;;;;;;;0.20;0.20;;;;;;;5.75;100.00;102682.47;5033010;28;20038;-81
2021/10/08 03:33:35;;;;;;;0.20;0.20;;;;;;;5.74;100.00;102686.22;5014943;28;20058;-81
2021/10/08 03:36:15;;;;;;;0.20;0.20;;;;;;;5.78;100.00;102686.66;5027383;28;20409;-82
2021/10/08 03:38:48;;;;;;;0.15;0.15;;;;;;;5.70;100.00;102670.59;5015137;28;20056;-81
2021/10/08 03:41:22;;;;;;;0.20;0.20;;;;;;;5.79;100.00;102683.75;5030648;28;20037;-81
2021/10/08 03:43:57;;;;;;;0.20;0.20;;;;;;;5.82;100.00;102685.22;5014923;28;20429;-81
2021/10/08 03:46:37;;;;;;;0.20;0.20;;;;;;;5.83;100.00;102686.06;5014335;28;20064;-81
2021/10/08 03:49:14;;;;;;;0.13;0.13;;;;;;;5.77;100.00;102674.19;5010569;28;20064;-81
2021/10/08 03:51:46;;;;;;;0.20;0.20;;;;;;;5.83;100.00;102686.91;5014360;28;20045;-81
2021/10/08 03:54:45;;;;;;;0.45;0.30;;;;;;;5.79;100.00;102688.34;5027558;28;20394;-82
2021/10/08 03:57:13;;;;;;;0.20;0.20;;;;;;;5.81;100.00;102688.97;5012680;28;20056;-81
2021/10/08 03:59:51;;;;;;;0.20;0.20;;;;;;;5.80;100.00;102687.31;5032029;28;20045;-83
2021/10/08 04:02:20;;;;;;;0.20;0.20;;;;;;;5.79;100.00;102689.16;5014227;28;20512;-82
2021/10/08 04:04:53;;;;;;;0.20;0.20;;;;;;;5.76;100.00;102694.97;5015011;28;20493;-82
2021/10/08 04:07:21;;;;;;;0.20;0.20;;;;;;;5.76;100.00;102694.16;5029705;28;20045;-80
2021/10/08 04:09:55;;;;;;;0.20;0.20;;;;;;;5.74;100.00;102697.00;5014484;28;20053;-82
2021/10/08 04:12:29;;;;;;;0.20;0.20;;;;;;;5.75;100.00;102696.00;5010595;28;20053;-81
2021/10/08 04:15:06;;;;;;;0.20;0.20;;;;;;;5.78;100.00;102698.28;5014317;28;20060;-81
2021/10/08 04:17:39;;;;;;;0.20;0.20;;;;;;;5.77;100.00;102693.94;5030971;28;20457;-81
2021/10/08 04:20:12;;;;;;;0.20;0.20;;;;;;;5.74;100.00;102686.22;5030511;28;20048;-81
2021/10/08 04:22:47;;;;;;;0.20;0.20;;;;;;;5.76;100.00;102689.56;5009059;28;20057;-82
2021/10/08 04:25:21;;;;;;;0.30;0.30;;;;;;;5.73;100.00;102686.41;5014308;28;20437;-81
2021/10/08 04:27:55;;;;;;;0.10;0.10;;;;;;;5.74;100.00;102691.63;5004357;28;20049;-82
2021/10/08 04:30:32;;;;;;;0.20;0.20;;;;;;;5.68;100.00;102689.72;4994723;28;20056;-81
2021/10/08 04:33:14;;;;;;;0.20;0.20;;;;;;;5.61;100.00;102686.13;5029345;28;20044;-82
2021/10/08 04:35:56;;;;;;;0.30;0.30;;;;;;;5.70;100.00;102692.22;5012353;28;20502;-82
2021/10/08 04:38:34;;;;;;;0.30;0.30;;;;;;;5.75;100.00;102696.00;5012243;28;20052;-83
2021/10/08 04:45:30;;;;;;;0.20;0.20;;;;;;;5.74;100.00;102702.41;5037083;28;20045;-81
2021/10/08 04:48:05;;;;;;;0.20;0.20;;;;;;;5.69;100.00;102704.03;5010616;28;20699;-81
2021/10/08 04:50:39;;;;;;;0.20;0.20;;;;;;;5.67;100.00;102703.44;5014521;28;20046;-81
2021/10/08 04:53:15;;;;;;;0.20;0.20;;;;;;;5.68;100.00;102710.50;5019207;28;20072;-82
2021/10/08 04:55:45;;;;;;;0.25;0.25;;;;;;;5.67;100.00;102700.72;5015999;28;20050;-81
2021/10/08 04:58:19;;;;;;;0.20;0.20;;;;;;;5.66;100.00;102709.84;5021154;28;20506;-81
2021/10/08 05:01:22;;;;;;;0.20;0.20;;;;;;;5.60;100.00;102715.00;5018273;28;20053;-81
2021/10/08 05:03:57;;;;;;;0.10;0.10;;;;;;;5.53;100.00;102714.13;5020692;28;20064;-82
2021/10/08 05:06:32;;;;;;;0.28;0.28;;;;;;;5.55;100.00;102713.91;5019779;28;20386;-82
2021/10/08 05:09:05;;;;;;;0.20;0.20;;;;;;;5.57;100.00;102712.69;5020368;28;20056;-82
2021/10/08 05:11:34;;;;;;;0.20;0.20;;;;;;;5.51;100.00;102710.78;5012361;28;20045;-81
2021/10/08 05:14:02;;;;;;;0.20;0.20;;;;;;;5.55;100.00;102716.63;5031241;28;20049;-81
2021/10/08 05:16:41;;;;;;;0.20;0.20;;;;;;;5.53;100.00;102711.41;5015657;28;20080;-81
2021/10/08 05:19:15;;;;;;;0.20;0.20;;;;;;;5.54;100.00;102714.97;5020541;28;20041;-81
2021/10/08 05:21:54;;;;;;;1.85;0.20;;;;;;;5.53;100.00;102713.28;5017129;28;20064;-82
2021/10/08 05:24:23;;;;;;;0.20;0.20;;;;;;;5.53;100.00;102716.00;5020679;28;20045;-82
2021/10/08 05:26:52;;;;;;;0.20;0.20;;;;;;;5.52;100.00;102711.63;5036571;28;20045;-81
2021/10/08 05:29:27;;;;;;;0.20;0.20;;;;;;;5.50;100.00;102719.91;5021004;28;20041;-81
2021/10/08 05:32:01;;;;;;;0.20;0.20;;;;;;;5.49;100.00;102715.53;5037883;28;20037;-80
2021/10/08 05:34:37;;;;;;;0.20;0.20;;;;;;;5.48;100.00;102719.25;5020193;28;20037;-81
2021/10/08 05:37:10;;;;;;;0.43;0.30;;;;;;;5.50;100.00;102736.13;5022826;28;20413;-82
2021/10/08 05:39:45;;;;;;;0.32;0.32;;;;;;;5.50;100.00;102722.63;5036399;28;20038;-79
2021/10/08 05:42:13;;;;;;;0.20;0.20;;;;;;;5.57;100.00;102728.91;5019541;28;20049;-80
2021/10/08 05:44:47;;;;;;;0.10;0.10;;;;;;;5.60;100.00;102739.31;5028282;28;20068;-80
2021/10/08 05:47:20;;;;;;;0.20;0.20;;;;;;;5.55;100.00;102728.28;5015004;28;20049;-79
2021/10/08 05:49:55;;;;;;;0.20;0.20;;;;;;;5.61;100.00;102732.88;5016118;28;20413;-80
2021/10/08 05:52:29;;;;;;;0.20;0.20;;;;;;;5.66;100.00;102739.56;5019731;28;20049;-79
2021/10/08 05:55:03;;;;;;;0.20;0.20;;;;;;;5.59;100.00;102743.06;5033409;28;20044;-81
2021/10/08 05:57:37;;;;;;;0.20;0.20;;;;;;;5.56;100.00;102748.00;5018907;28;20401;-80
2021/10/08 06:00:06;;;;;;;0.85;0.47;;;;;;;5.39;100.00;102723.16;5015788;28;20048;-80
2021/10/08 06:02:42;;;;;;;0.20;0.20;;;;;;;5.47;100.00;102743.78;5030688;28;20080;-81
2021/10/08 06:05:24;;;;;;;0.20;0.20;;;;;;;5.47;100.00;102751.88;5018825;28;20045;-83
2021/10/08 06:07:53;;;;;;;0.20;0.20;;;;;;;5.54;100.00;102750.09;5002047;28;20049;-81
2021/10/08 06:10:26;;;;;;;0.20;0.20;;;;;;;5.56;100.00;102748.84;5003505;28;20536;-79
2021/10/08 06:12:59;;;;;;;0.20;0.20;;;;;;;5.64;100.00;102752.44;5000528;28;20084;-80
2021/10/08 06:15:29;;;;;;;0.20;0.20;;;;;;;5.70;100.00;102763.28;5017838;28;20049;-80
2021/10/08 06:18:02;;;;;;;0.15;0.15;;;;;;;5.61;100.00;102759.91;5018631;28;20057;-83
2021/10/08 06:20:32;;;;;;;0.32;0.30;;;;;;;5.62;100.00;102766.97;5000987;28;20053;-80
2021/10/08 06:23:09;;;;;;;0.20;0.20;;;;;;;5.67;100.00;102774.47;5008050;28;20054;-80
2021/10/08 06:25:43;;;;;;;0.20;0.20;;;;;;;5.60;100.00;102763.63;5002523;28;20387;-83
2021/10/08 06:28:17;;;;;;;0.20;0.20;;;;;;;5.66;100.00;102772.81;5003594;28;20060;-81
2021/10/08 06:30:52;;;;;;;0.22;0.22;;;;;;;5.63;100.00;102778.59;5005671;28;20417;-79
2021/10/08 06:33:26;;;;;;;0.20;0.20;;;;;;;5.56;100.00;102775.84;5004503;28;20053;-79
2021/10/08 06:36:00;;;;;;;0.20;0.20;;;;;;;5.59;100.00;102778.19;5027267;28;20038;-82
2021/10/08 06:38:29;;;;;;;0.20;0.20;;;;;;;5.59;100.00;102780.88;5004236;28;20053;-83
2021/10/08 06:41:03;;;;;;;0.20;0.20;;;;;;;5.70;100.00;102782.19;5005829;28;20068;-82
2021/10/08 06:43:36;;;;;;;0.20;0.20;;;;;;;5.72;100.00;102793.66;5006219;28;21355;-83
2021/10/08 06:46:27;;;;;;;0.20;0.20;;;;;;;5.66;100.00;102764.69;5004487;28;20056;-80
2021/10/08 06:49:01;;;;;;;0.43;0.20;;;;;;;5.83;100.00;102780.63;5007976;28;20413;-82
2021/10/08 06:51:32;;;;;;;0.20;0.20;;;;;;;5.93;100.00;102787.38;5020226;28;20694;-80
2021/10/08 06:54:05;;;;;;;0.20;0.20;;;;;;;5.95;100.00;102782.63;5003363;28;20064;-79
2021/10/08 06:56:39;;;;;;;0.20;0.20;;;;;;;6.09;100.00;102791.69;5019257;28;20037;-80
2021/10/08 06:59:18;;;;;;;0.20;0.20;;;;;;;6.13;100.00;102778.59;5014062;28;20065;-80
2021/10/08 07:01:53;;;;;;;0.20;0.20;;;;;;;6.26;100.00;102791.38;5013692;28;20041;-79
2021/10/08 07:04:27;;;;;;;0.20;0.20;;;;;;;6.32;100.00;102795.16;4993597;28;20128;-82
2021/10/08 07:07:04;;;;;;;0.20;0.20;;;;;;;6.41;100.00;102797.50;5013516;28;20061;-80
2021/10/08 07:09:50;;;;;;;;;;;;;;;6.51;100.00;102799.00;5000183;28;20556;-80
2021/10/08 07:12:19;;;;;;;0.22;0.22;;;;;;;6.59;100.00;102805.06;5017708;28;19940;-82
2021/10/08 07:14:52;;;;;;;0.20;0.20;;;;;;;6.83;100.00;102807.47;5022804;28;20049;-81
2021/10/08 07:17:25;;;;;;;0.20;0.20;;;;;;;6.83;100.00;102802.06;5019093;28;20611;-81
2021/10/08 07:19:54;;;;;;;0.20;0.20;;;;;;;6.76;100.00;102804.72;5014689;28;20061;-80
2021/10/08 07:22:29;;;;;;;0.20;0.20;;;;;;;6.80;100.00;102801.41;5019644;28;20057;-82
2021/10/08 07:25:03;;;;;;;0.20;0.20;;;;;;;6.89;100.00;102803.94;5017355;28;20045;-80
2021/10/08 07:27:37;;;;;;;0.20;0.20;;;;;;;6.87;100.00;102809.56;4997615;28;20100;-82
2021/10/08 07:30:11;;;;;;;0.10;0.10;;;;;;;7.05;100.00;102814.41;5002234;28;20068;-81
2021/10/08 07:32:45;;;;;;;0.20;0.20;;;;;;;6.93;100.00;102799.78;5015157;28;20477;-81
2021/10/08 07:35:18;;;;;;;0.20;0.20;;;;;;;7.17;100.00;102814.66;4995131;28;20049;-81
2021/10/08 07:37:53;;;;;;;0.20;0.20;;;;;;;7.30;100.00;102805.72;4991485;28;20053;-80
2021/10/08 07:40:26;;;;;;;0.20;0.20;;;;;;;7.20;100.00;102810.72;5019783;28;21555;-79
2021/10/08 07:42:55;;;;;;;0.10;0.10;;;;;;;7.27;100.00;102806.97;5015292;28;20083;-79
2021/10/08 07:45:23;;;;;;;0.20;0.20;;;;;;;7.23;100.00;102815.72;5001589;28;20096;-81
2021/10/08 07:47:51;;;;;;;0.20;0.20;;;;;;;7.24;100.00;102811.97;5013583;28;20049;-79
2021/10/08 07:50:24;;;;;;;0.20;0.20;;;;;;;7.28;100.00;102811.34;5018221;28;20397;-80
2021/10/08 07:52:59;;;;;;;0.13;0.13;;;;;;;7.38;100.00;102813.66;5016258;28;20060;-81
2021/10/08 07:55:32;;;;;;;0.20;0.20;;;;;;;7.62;100.00;102822.22;5017665;28;20057;-81
2021/10/08 07:58:06;;;;;;;0.20;0.20;;;;;;;7.58;100.00;102815.56;5000962;28;20057;-80
2021/10/08 08:00:40;;;;;;;0.22;0.20;;;;;;;7.61;100.00;102815.13;4997221;28;20064;-83
2021/10/08 08:03:13;;;;;;;0.20;0.20;;;;;;;7.87;100.00;102808.91;5012106;28;20056;-80
2021/10/08 08:05:46;;;;;;;0.20;0.20;;;;;;;7.81;100.00;102807.03;5014617;28;20060;-80
2021/10/08 08:08:21;;;;;;;0.20;0.20;;;;;;;8.11;100.00;102817.44;5012513;28;20069;-79
2021/10/08 08:10:54;;;;;;;0.20;0.20;;;;;;;8.19;100.00;102828.06;5013246;28;20061;-82
2021/10/08 08:13:28;;;;;;;0.20;0.20;;;;;;;8.29;100.00;102824.91;5014051;28;20410;-80
2021/10/08 08:16:01;;;;;;;0.20;0.20;;;;;;;8.39;100.00;102827.19;5015294;28;20041;-80
2021/10/08 08:18:35;;;;;;;0.22;0.22;;;;;;;8.45;100.00;102823.66;4998124;28;20057;-79
2021/10/08 08:21:04;;;;;;;0.20;0.20;;;;;;;8.37;100.00;102829.25;5017920;28;20048;-79
2021/10/08 08:23:34;;;;;;;0.20;0.20;;;;;;;8.55;100.00;102834.06;5017949;28;20084;-81
2021/10/08 08:26:07;;;;;;;0.17;0.17;;;;;;;8.56;100.00;102830.31;5016696;28;20049;-80
2021/10/08 08:28:35;;;;;;;0.20;0.20;;;;;;;8.74;100.00;102833.19;4996143;28;20057;-78
2021/10/08 08:31:04;;;;;;;0.20;0.20;;;;;;;8.71;100.00;102830.06;5013206;28;20072;-81
2021/10/08 08:33:37;;;;;;;0.20;0.20;;;;;;;8.98;100.00;102838.94;4996893;28;20504;-80
2021/10/08 08:36:12;;;;;;;0.20;0.20;;;;;;;8.83;100.00;102831.88;5017900;28;20058;-79
2021/10/08 08:38:47;;;;;;;0.20;0.20;;;;;;;8.97;100.00;102829.09;5014348;28;20060;-80
2021/10/08 08:41:15;;;;;;;0.20;0.20;;;;;;;9.03;100.00;102833.66;5009712;28;21775;-79
2021/10/08 08:43:43;;;;;;;0.20;0.20;;;;;;;9.14;100.00;102829.44;5013557;28;20068;-80
2021/10/08 08:46:17;;;;;;;0.20;0.20;;;;;;;9.06;100.00;102829.69;5014977;28;20050;-81
2021/10/08 08:48:49;;;;;;;0.30;0.30;;;;;;;9.36;100.00;102832.66;4995033;28;20057;-80
2021/10/08 08:51:25;;;;;;;0.30;0.30;;;;;;;9.25;100.00;102831.44;5014933;28;20045;-80
2021/10/08 08:54:03;;;;;;;0.20;0.20;;;;;;;9.28;100.00;102835.63;5017131;28;20060;-81
2021/10/08 08:56:37;;;;;;;0.20;0.20;;;;;;;9.37;100.00;102820.72;4996663;28;21379;-80
2021/10/08 08:59:12;;;;;;;0.10;0.10;;;;;;;9.44;100.00;102829.66;5019212;28;20045;-79
2021/10/08 09:01:59;;;;;;;0.20;0.20;;;;;;;9.79;100.00;102826.50;5015934;28;20058;-82
2021/10/08 09:04:30;;;;;;;0.20;0.20;;;;;;;9.62;100.00;102819.94;5007812;28;20567;-80
2021/10/08 09:07:16;;;;;;;0.20;0.20;;;;;;;9.55;100.00;102822.69;5023016;28;20056;-80
2021/10/08 09:09:45;;;;;;;0.20;0.20;;;;;;;9.64;100.00;102820.53;4992584;28;20054;-81
2021/10/08 09:12:18;;;;;;;0.20;0.20;;;;;;;10.07;100.00;102817.06;4979894;28;20062;-81
2021/10/08 09:14:58;;;;;;;0.20;0.20;;;;;;;9.94;100.00;102826.16;4993338;28;20050;-80
2021/10/08 09:17:31;;;;;;;0.20;0.20;;;;;;;10.06;100.00;102818.09;4994302;28;20058;-81
2021/10/08 09:20:06;;;;;;;0.20;0.20;;;;;;;10.00;100.00;102819.81;4994279;28;20078;-81
2021/10/08 09:22:51;;;;;;;0.20;0.20;;;;;;;10.14;100.00;102817.81;4998613;28;20050;-79
2021/10/08 09:25:26;;;;;;;0.20;0.20;;;;;;;10.33;100.00;102825.97;4998368;28;20054;-80
2021/10/08 09:28:02;;;;;;;0.20;0.20;;;;;;;10.36;100.00;102825.59;4999879;28;20058;-81
2021/10/08 09:30:39;;;;;;;0.20;0.20;;;;;;;10.33;100.00;102828.72;4975853;28;20057;-80
2021/10/08 09:33:14;;;;;;;0.20;0.20;;;;;;;10.44;100.00;102835.34;4993864;28;20061;-81
2021/10/08 09:35:55;;;;;;;0.20;0.20;;;;;;;10.47;100.00;102822.13;4997671;28;20816;-81
2021/10/08 09:38:33;;;;;;;0.13;0.13;;;;;;;10.53;100.00;102834.81;4997624;28;20046;-82
2021/10/08 09:41:06;;;;;;;0.20;0.20;;;;;;;10.62;100.00;102831.78;4999582;28;20058;-81
2021/10/08 09:43:40;;;;;;;0.20;0.20;;;;;;;10.82;100.00;102829.66;4986076;28;20065;-80
2021/10/08 09:46:21;;;;;;;0.20;0.20;;;;;;;10.87;100.00;102827.09;4986285;28;20061;-80
2021/10/08 09:48:49;;;;;;;0.22;0.22;;;;;;;10.82;100.00;102823.38;4999893;28;20054;-80
2021/10/08 09:51:29;;;;;;;0.20;0.20;;;;;;;10.47;100.00;102785.91;5002135;28;20045;-79
2021/10/08 09:53:58;;;;;;;0.20;0.20;;;;;;;10.69;100.00;102824.38;5001218;28;20399;-80
2021/10/08 09:57:00;;;;;;;0.20;0.20;;;;;;;10.53;100.00;102837.53;5005554;28;20058;-78
2021/10/08 09:59:39;;;;;;;0.20;0.20;;;;;;;10.11;100.00;102840.03;4997394;28;20062;-79
2021/10/08 10:02:15;;;;;;;0.20;0.20;;;;;;;9.95;100.00;102846.03;5001511;28;20068;-80
2021/10/08 10:04:52;;;;;;;0.20;0.20;;;;;;;9.99;100.00;102847.25;4983999;28;20065;-82
2021/10/08 10:07:26;;;;;;;0.20;0.20;;;;;;;9.97;100.00;102842.03;5009536;28;20065;-83
2021/10/08 10:09:59;;;;;;;0.20;0.20;;;;;;;10.33;100.00;102836.88;5017040;28;20069;-80
2021/10/08 10:12:35;;;;;;;0.20;0.20;;;;;;;10.41;100.00;102847.50;5018161;28;20050;-79
2021/10/08 10:15:04;;;;;;;0.20;0.20;;;;;;;10.45;100.00;102842.44;5020487;28;20049;-80
2021/10/08 10:17:35;;;;;;;0.22;0.22;;;;;;;10.57;100.00;102848.00;5006487;28;20049;-80
2021/10/08 10:20:11;;;;;;;0.20;0.20;;;;;;;10.65;100.00;102845.78;5001224;28;20062;-83
2021/10/08 10:22:44;;;;;;;0.32;0.20;;;;;;;10.80;100.00;102842.69;5019816;28;20544;-82
2021/10/08 10:25:14;;;;;;;0.20;0.20;;;;;;;10.84;100.00;102843.03;5024060;28;20679;-80
2021/10/08 10:27:50;;;;;;;0.20;0.20;;;;;;;10.89;100.00;102838.56;5001821;28;20050;-81
2021/10/08 10:30:19;;;;;;;0.20;0.20;;;;;;;10.95;100.00;102833.28;5019273;28;20060;-80
2021/10/08 10:32:55;;;;;;;0.20;0.20;;;;;;;11.08;100.00;102838.56;4999223;28;20518;-83
2021/10/08 10:35:40;;;;;;;0.20;0.20;;;;;;;10.80;100.00;102841.84;5004013;28;20060;-82
2021/10/08 10:38:38;;;;;;;0.20;0.20;;;;;;;10.69;100.00;102849.72;5002425;28;20050;-83
2021/10/08 10:41:26;;;;;;;0.20;0.20;;;;;;;10.54;100.00;102841.91;5007812;28;20061;-82
2021/10/08 10:44:14;;;;;;;0.30;0.30;;;;;;;10.55;100.00;102848.22;5022106;28;20053;-82
2021/10/08 10:46:56;;;;;;;0.30;0.30;;;;;;;10.62;100.00;102845.41;4996692;28;20057;-84
2021/10/08 10:52:23;;;;;;;0.20;0.20;;;;;;;11.00;100.00;102844.31;4999010;28;20069;-80
2021/10/08 10:54:56;;;;;;;0.30;0.30;;;;;;;11.05;100.00;102833.56;5017468;28;20057;-80
2021/10/08 10:57:48;;;;;;;0.30;0.30;;;;;;;11.12;100.00;102828.03;5022417;28;20096;-82
2021/10/08 11:00:26;;;;;;;0.30;0.30;;;;;;;11.06;100.00;102832.50;5021449;28;20061;-81
2021/10/08 11:03:04;;;;;;;0.20;0.20;;;;;;;11.10;100.00;102833.69;5015790;28;20052;-83
2021/10/08 11:05:37;;;;;;;0.20;0.20;;;;;;;11.16;100.00;102821.06;4999440;28;20053;-80
2021/10/08 11:08:15;;;;;;;0.20;0.20;;;;;;;11.23;100.00;102832.69;5020111;28;20049;-83
2021/10/08 11:11:15;;;;;;;0.20;0.20;;;;;;;11.08;100.00;102824.94;5020972;28;20045;-83
2021/10/08 11:13:50;;;;;;;0.20;0.20;;;;;;;11.01;100.00;102827.75;5019487;28;20057;-82
2021/10/08 11:16:31;;;;;;;0.20;0.20;;;;;;;11.21;100.00;102827.47;5004361;28;20069;-82
2021/10/08 11:19:28;;;;;;;0.20;0.20;;;;;;;11.35;100.00;102825.41;5020531;28;20048;-82
2021/10/08 11:22:02;;;;;;;0.30;0.30;;;;;;;11.48;100.00;102823.53;5019635;28;20048;-80
2021/10/08 11:24:35;;;;;;;0.17;0.17;;;;;;;11.69;100.00;102817.50;5026438;28;20514;-81
2021/10/08 11:27:09;;;;;;;0.28;0.28;;;;;;;11.64;100.00;102814.69;5013410;28;20042;-79
2021/10/08 11:29:42;;;;;;;0.20;0.20;;;;;;;11.62;100.00;102819.53;5023787;28;20060;-80
2021/10/08 11:32:16;;;;;;;0.20;0.20;;;;;;;11.65;100.00;102820.94;5017518;28;21813;-80
2021/10/08 11:34:52;;;;;;;0.20;0.20;;;;;;;11.53;100.00;102808.13;5022108;28;20057;-80
2021/10/08 11:37:23;;;;;;;0.20;0.20;;;;;;;11.49;100.00;102797.91;5025373;28;20080;-81
2021/10/08 11:39:52;;;;;;;0.20;0.20;;;;;;;11.56;100.00;102817.75;5025352;28;20045;-82
2021/10/08 11:42:27;;;;;;;0.20;0.20;;;;;;;11.38;100.00;102805.84;5010470;28;20057;-82
2021/10/08 11:45:03;;;;;;;0.20;0.20;;;;;;;11.46;100.00;102801.97;5022009;28;20046;-82
2021/10/08 11:47:41;;;;;;;0.20;0.20;;;;;;;11.50;100.00;102811.34;5028247;28;20603;-82
2021/10/08 11:52:55;;;;;;;0.20;0.20;;;;;;;11.67;100.00;102816.06;5026480;28;20052;-84
2021/10/08 11:55:27;;;;;;;0.30;0.30;;;;;;;11.86;100.00;102811.34;5028806;28;20042;-87
2021/10/08 11:58:03;;;;;;;0.20;0.20;;;;;;;12.17;100.00;102809.41;5014966;28;20064;-81
2021/10/08 12:00:39;;;;;;;0.20;0.20;;;;;;;12.27;100.00;102795.97;5013183;28;20041;-80
2021/10/08 12:03:15;;;;;;;0.20;0.20;;;;;;;12.34;100.00;102802.13;5028695;28;20041;-82
2021/10/08 12:05:49;;;;;;;0.20;0.20;;;;;;;12.17;100.00;102793.03;5029639;28;20401;-84
2021/10/08 12:08:24;;;;;;;0.20;0.20;;;;;;;12.08;100.00;102800.72;5022837;28;20391;-84
2021/10/08 12:10:59;;;;;;;0.20;0.20;;;;;;;12.07;100.00;102805.34;5024383;28;20049;-84